Latest Weather Observations for Mount Nowa Nowa

IDV60801

Issued at 5:03 pm EST Saturday 23 September 2017 (issued every 30 minutes, with the page automatically refreshed every 10 minutes)

About weather observations | Map of weather stations | Latest weather observations for VIC | Other Formats
Station Details ID: 084144 Name: MOUNT NOWA NOWA Lat: -37.69 Lon: 148.09 Height: 350.0 m
Data from the previous 72 hours. | See also: Recent months at Mount Nowa Nowa
Date/Time
EST
Temp
°C
App
Temp
°C
Dew
Point
°C
Rel
Hum
%
Delta-T
°C
Wind Press
QNH
hPa
Press
MSL
hPa
Rain since
9am
mm
Dir  Spd
km/h
Gust
km/h
Spd
kts
Gust
kts
23/05:00pm 28.8 23.3 0.5 16 13.7 WNW 19 35 10 19 - - 0.0
23/04:30pm 29.9 23.8 0.5 15 14.4 NW 22 43 12 23 - - 0.0
23/04:00pm 30.8 24.7 0.2 14 15.0 NW 22 39 12 21 - - 0.0
23/03:54pm 30.9 23.6 0.3 14 15.0 NW 28 54 15 29 - - 0.0
23/03:30pm 31.4 25.7 0.7 14 15.2 NW 20 43 11 23 - - 0.0
23/03:00pm 31.6 23.9 -0.1 13 15.5 NW 30 57 16 31 - - 0.0
23/02:30pm 32.0 24.0 0.2 13 15.7 NW 32 61 17 33 - - 0.0
23/02:00pm 32.0 23.6 -0.9 12 15.9 NW 33 59 18 32 - - 0.0
23/01:32pm 31.9 24.5 -1.0 12 15.9 NW 28 54 15 29 - - 0.0
23/01:30pm 32.1 25.6 0.2 13 15.8 NW 24 54 13 29 - - 0.0
23/01:00pm 31.4 23.1 -0.3 13 15.5 NW 33 63 18 34 - - 0.0
23/12:30pm 31.6 23.5 -0.1 13 15.5 NNW 32 54 17 29 - - 0.0
23/12:04pm 30.3 23.0 -0.1 14 14.8 NNW 28 54 15 29 - - 0.0
23/12:00pm 30.5 24.5 1.0 15 14.6 NW 22 43 12 23 - - 0.0
23/11:30am 30.0 25.1 2.3 17 14.0 NNW 17 30 9 16 - - 0.0
23/11:00am 27.2 20.0 0.8 18 12.7 NNW 28 54 15 29 - - 0.0
23/10:43am 27.9 20.8 1.4 18 13.0 NW 28 52 15 28 - - 0.0
23/10:30am 27.2 21.2 0.8 18 12.7 NW 22 48 12 26 - - 0.0
23/10:00am 25.5 19.5 -1.3 17 12.3 NNW 20 41 11 22 - - 0.0
23/09:30am 23.7 17.2 -2.8 17 11.7 NNW 22 46 12 25 - - 0.0
23/09:00am 22.3 15.3 -3.1 18 11.0 NNW 24 43 13 23 - - 0.0
23/08:43am 22.5 14.3 -3.7 17 11.2 NNW 30 48 16 26 - - 0.0
23/08:30am 21.7 14.9 -1.6 21 10.3 NNW 24 39 13 21 - - 0.0
23/08:00am 20.9 14.1 -2.2 21 10.0 NNW 24 46 13 25 - - 0.0
23/07:30am 19.6 12.8 -2.1 23 9.3 NNW 24 41 13 22 - - 0.0
23/07:00am 20.1 12.0 -2.9 21 9.8 NNW 30 48 16 26 - - 0.0
23/06:52am 19.8 12.2 -2.5 22 9.5 NNW 28 48 15 26 - - 0.0
23/06:30am 19.4 12.5 -2.8 22 9.4 NNW 24 39 13 21 - - 0.0
23/06:00am 19.8 11.8 -2.5 22 9.5 NNW 30 44 16 24 - - 0.0
23/05:30am 20.0 12.3 -3.0 21 9.7 NNW 28 46 15 25 - - 0.0
23/05:00am 20.1 12.4 -2.9 21 9.8 NNW 28 48 15 26 - - 0.0
23/04:45am 20.3 12.6 -2.7 21 9.8 NNW 28 46 15 25 - - 0.0
23/04:30am 19.8 12.2 -1.9 23 9.4 NNW 28 43 15 23 - - 0.0
23/04:00am 19.7 12.2 -1.4 24 9.2 NNW 28 46 15 25 - - 0.0
23/03:53am 19.8 12.2 -1.9 23 9.4 NNW 28 46 15 25 - - 0.0
23/03:30am 19.3 12.2 -1.2 25 9.0 NNW 26 44 14 24 - - 0.0
23/03:00am 19.6 12.5 -1.5 24 9.2 NNW 26 41 14 22 - - 0.0
23/02:30am 19.2 12.9 -0.7 26 8.8 NNW 22 33 12 18 - - 0.0
23/02:00am 18.6 13.0 0.2 29 8.2 NNW 19 30 10 16 - - 0.0
23/01:30am 18.5 13.4 0.6 30 8.1 NNW 17 28 9 15 - - 0.0
23/01:00am 18.5 13.8 1.1 31 7.9 NNW 15 24 8 13 - - 0.0
23/12:30am 18.5 14.3 1.5 32 7.8 NNW 13 22 7 12 - - 0.0
23/12:00am 19.1 14.9 1.6 31 8.1 NNW 13 22 7 12 - - 0.0
 
Date/Time
EST
Temp
°C
App
Temp
°C
Dew
Point
°C
Rel
Hum
%
Delta-T
°C
Wind Press
QNH
hPa
Press
MSL
hPa
Rain since
9am
mm
Dir  Spd
km/h
Gust
km/h
Spd
kts
Gust
kts
22/11:30pm 19.4 15.6 1.9 31 8.1 NNW 11 19 6 10 - - 0.0
22/11:00pm 19.1 15.2 1.1 30 8.2 N 11 22 6 12 - - 0.0
22/10:30pm 18.6 14.4 1.6 32 7.8 N 13 22 7 12 - - 0.0
22/10:00pm 19.1 15.3 2.0 32 8.0 N 11 20 6 11 - - 0.0
22/09:30pm 20.0 16.2 1.9 30 8.5 NNW 11 17 6 9 - - 0.0
22/09:00pm 19.9 15.5 2.7 32 8.2 NNW 15 24 8 13 - - 0.0
22/08:30pm 20.8 15.2 3.5 32 8.4 NNW 22 35 12 19 - - 0.0
22/08:00pm 20.3 15.5 4.8 36 7.7 NNW 19 30 10 16 - - 0.0
22/07:30pm 19.7 15.9 7.4 45 6.4 NNW 17 26 9 14 - - 0.0
22/07:00pm 18.3 16.3 11.6 65 3.7 N 13 19 7 10 - - 0.0
22/06:30pm 17.0 15.6 12.3 74 2.6 NNE 11 19 6 10 - - 0.0
22/06:00pm 14.4 13.2 11.7 84 1.5 E 9 13 5 7 - - 0.0
22/05:30pm 14.6 13.0 11.6 82 1.6 E 11 15 6 8 - - 0.0
22/05:00pm 14.8 13.5 11.4 80 1.9 E 9 13 5 7 - - 0.0
22/04:30pm 15.0 13.7 11.4 79 2.0 E 9 13 5 7 - - 0.0
22/04:00pm 15.3 14.0 11.1 76 2.3 ESE 9 19 5 10 - - 0.0
22/03:30pm 15.6 14.3 11.2 75 2.4 ESE 9 17 5 9 - - 0.0
22/03:00pm 17.1 15.7 10.9 67 3.4 ESE 9 19 5 10 - - 0.0
22/02:30pm 17.9 17.0 11.5 66 3.6 ESE 7 17 4 9 - - 0.0
22/02:00pm 19.1 18.4 11.9 63 4.0 ESE 7 13 4 7 - - 0.0
22/01:30pm 18.8 17.9 11.4 62 4.1 ESE 7 13 4 7 - - 0.0
22/01:00pm 18.3 17.5 11.1 63 4.0 SE 6 13 3 7 - - 0.0
22/12:30pm 17.4 16.3 10.5 64 3.7 ESE 7 15 4 8 - - 0.0
22/12:00pm 16.8 15.8 11.1 69 3.1 ESE 7 11 4 6 - - 0.0
22/11:30am 17.5 16.6 10.6 64 3.8 SE 6 11 3 6 - - 0.0
22/11:00am 16.7 15.7 10.3 66 3.4 ESE 6 9 3 5 - - 0.0
22/10:30am 16.3 15.2 9.9 66 3.4 ESE 6 9 3 5 - - 0.0
22/10:00am 15.8 15.0 9.5 66 3.3 ESE 4 7 2 4 - - 0.0
22/09:30am 14.3 13.0 9.9 75 2.3 E 7 13 4 7 - - 0.0
22/09:00am 13.4 11.3 9.8 79 1.9 E 11 17 6 9 - - 0.0
22/08:30am 12.6 10.7 9.1 79 1.8 E 9 15 5 8 - - 0.0
22/08:00am 11.8 10.3 9.2 84 1.3 E 7 13 4 7 - - 0.0
22/07:30am 11.7 9.9 9.3 85 1.2 E 9 13 5 7 - - 0.0
22/07:00am 10.3 9.0 9.1 92 0.6 E 6 9 3 5 - - 0.0
22/06:30am 9.2 7.6 8.1 93 0.5 E 6 9 3 5 - - 0.0
22/06:00am 9.4 7.9 8.3 93 0.5 ENE 6 7 3 4 - - 0.0
22/05:30am 9.5 9.1 8.4 93 0.5 CALM 0 0 0 0 - - 0.0
22/05:00am 9.5 9.1 8.3 92 0.6 CALM 0 0 0 0 - - 0.0
22/04:30am 9.7 8.9 8.3 91 0.7 W 2 4 1 2 - - 0.0
22/04:00am 9.8 8.7 8.4 91 0.7 W 4 6 2 3 - - 0.0
22/03:30am 10.0 8.3 8.4 90 0.8 W 7 13 4 7 - - 0.0
22/03:00am 10.2 8.5 8.5 89 0.8 W 7 11 4 6 - - 0.0
22/02:30am 10.4 8.7 8.3 87 1.0 WSW 7 9 4 5 - - 0.0
22/02:00am 10.8 9.0 8.0 83 1.4 WSW 7 13 4 7 - - 0.0
22/01:30am 11.3 9.1 8.0 80 1.6 SSW 9 17 5 9 - - 0.0
22/01:00am 11.7 9.1 7.8 77 1.9 S 11 17 6 9 - - 0.0
22/12:30am 13.2 10.5 5.4 59 3.7 SSW 9 15 5 8 - - 0.0
22/12:00am 15.7 13.1 3.2 43 5.8 WNW 6 9 3 5 - - 0.0
 
Date/Time
EST
Temp
°C
App
Temp
°C
Dew
Point
°C
Rel
Hum
%
Delta-T
°C
Wind Press
QNH
hPa
Press
MSL
hPa
Rain since
9am
mm
Dir  Spd
km/h
Gust
km/h
Spd
kts
Gust
kts
21/11:30pm 15.9 12.7 3.0 42 6.0 WNW 9 13 5 7 - - 0.0
21/11:00pm 16.7 12.3 2.7 39 6.5 NW 15 22 8 12 - - 0.0
21/10:30pm 16.9 12.1 2.5 38 6.6 NW 17 24 9 13 - - 0.0
21/10:00pm 17.0 12.4 1.8 36 6.9 NW 15 30 8 16 - - 0.0
21/09:30pm 17.3 13.1 1.7 35 7.1 NNW 13 20 7 11 - - 0.0
21/09:00pm 17.3 13.0 1.3 34 7.2 NNW 13 26 7 14 - - 0.0
21/08:30pm 17.6 12.2 1.2 33 7.4 NNW 19 33 10 18 - - 0.0
21/08:00pm 17.7 11.7 1.2 33 7.5 NNW 22 39 12 21 - - 0.0
21/07:30pm 17.9 13.3 1.4 33 7.5 NW 15 24 8 13 - - 0.0
21/07:00pm 18.5 14.7 1.5 32 7.8 NW 11 22 6 12 - - 0.0
21/06:30pm 19.0 15.2 2.0 32 7.9 NW 11 24 6 13 - - 0.0
21/06:00pm 19.1 16.6 3.7 36 7.4 NW 6 9 3 5 - - 0.0
21/05:30pm 19.8 17.0 2.2 31 8.3 NW 6 11 3 6 - - 0.0
21/05:00pm 20.6 16.6 0.4 26 9.2 NNW 11 20 6 11 - - 0.0
21/04:30pm 21.1 17.6 1.4 27 9.2 NNW 9 17 5 9 - - 0.0
21/04:00pm 20.8 17.4 2.1 29 8.8 N 9 17 5 9 - - 0.0
21/03:30pm 19.4 16.3 1.4 30 8.3 NNE 7 28 4 15 - - 0.0
21/03:00pm 18.3 15.6 3.8 38 6.9 E 7 13 4 7 - - 0.0
21/02:30pm 18.0 14.7 2.7 36 7.2 E 9 17 5 9 - - 0.0
21/02:00pm 18.1 15.1 2.0 34 7.4 E 7 13 4 7 - - 0.0
21/01:30pm 18.9 15.7 -0.5 27 8.6 E 6 11 3 6 - - 0.0
21/01:00pm 19.1 16.3 2.0 32 8.0 ENE 6 9 3 5 - - 0.0
21/12:30pm 18.8 15.3 -1.1 26 8.7 NNW 7 15 4 8 - - 0.0
21/12:00pm 18.3 14.8 -1.0 27 8.4 NNW 7 11 4 6 - - 0.0
21/11:30am 18.0 14.4 -1.8 26 8.4 NW 7 11 4 6 - - 0.0
21/11:00am 18.3 15.0 0.0 29 8.1 NW 7 17 4 9 - - 0.0
21/10:30am 18.1 15.4 2.4 35 7.3 NW 6 11 3 6 - - 0.0
21/10:00am 16.4 13.5 1.3 36 6.8 NW 6 11 3 6 - - 0.0
21/09:30am 15.8 11.6 1.5 38 6.4 NNW 13 22 7 12 - - 0.0
21/09:00am 14.0 9.1 2.0 44 5.3 NNW 17 26 9 14 - - 0.0
21/08:30am 12.4 8.3 2.0 49 4.6 NNW 13 20 7 11 - - 0.0
21/08:00am 12.9 7.4 0.6 43 5.3 N 19 32 10 17 - - 0.0
21/07:30am 11.7 6.3 1.4 49 4.4 NNW 19 30 10 16 - - 0.0
21/07:00am 11.2 6.7 2.2 54 3.9 N 15 24 8 13 - - 0.0
21/06:30am 11.0 6.6 2.6 56 3.7 N 15 28 8 15 - - 0.0
21/06:00am 11.0 6.2 2.6 56 3.7 N 17 30 9 16 - - 0.0
21/05:30am 10.5 5.7 2.8 59 3.4 NNW 17 26 9 14 - - 0.0
21/05:00am 10.8 6.9 3.4 60 3.3 NNW 13 24 7 13 - - 0.0
21/04:30am 11.3 7.3 3.1 57 3.7 NNW 13 20 7 11 - - 0.0
21/04:00am 11.7 7.4 3.5 57 3.7 NNW 15 22 8 12 - - 0.0
21/03:30am 11.8 7.5 3.3 56 3.8 NNW 15 22 8 12 - - 0.0
21/03:00am 11.7 9.0 3.7 58 3.6 NW 7 15 4 8 - - 0.0
21/02:30am 11.7 9.2 4.0 59 3.5 N 6 9 3 5 - - 0.0
21/02:00am 11.8 9.1 3.8 58 3.6 N 7 13 4 7 - - 0.0
21/01:30am 11.5 8.5 4.0 60 3.4 NNW 9 17 5 9 - - 0.0
21/01:00am 11.3 8.0 4.3 62 3.2 NNW 11 19 6 10 - - 0.0
21/12:30am 11.1 7.4 4.3 63 3.1 NNW 13 20 7 11 - - 0.0
21/12:00am 10.7 7.8 4.4 65 2.9 NNE 9 19 5 10 - - 0.0
 
Date/Time
EST
Temp
°C
App
Temp
°C
Dew
Point
°C
Rel
Hum
%
Delta-T
°C
Wind Press
QNH
hPa
Press
MSL
hPa
Rain since
9am
mm
Dir  Spd
km/h
Gust
km/h
Spd
kts
Gust
kts
20/11:30pm 10.6 7.7 4.5 66 2.8 ENE 9 13 5 7 - - 0.0
20/11:00pm 9.8 6.5 4.4 69 2.4 E 11 15 6 8 - - 0.0
20/10:30pm 9.3 5.9 4.1 70 2.3 E 11 15 6 8 - - 0.0
20/10:00pm 9.0 5.6 4.0 71 2.2 E 11 15 6 8 - - 0.0
20/09:30pm 9.7 6.7 4.1 68 2.5 E 9 11 5 6 - - 0.0
20/09:00pm 10.0 7.0 4.0 66 2.7 E 9 11 5 6 - - 0.0
20/08:30pm 9.8 6.4 3.8 66 2.7 ENE 11 15 6 8 - - 0.0
20/08:00pm 9.6 6.1 3.4 65 2.7 ENE 11 13 6 7 - - 0.0
20/07:30pm 8.8 5.7 3.6 70 2.3 E 9 17 5 9 - - 0.0
20/07:00pm 9.1 5.7 3.9 70 2.3 E 11 15 6 8 - - 0.0
20/06:30pm 9.2 6.1 3.8 69 2.4 E 9 15 5 8 - - 0.0
20/06:00pm 9.6 6.5 3.8 67 2.6 E 9 13 5 7 - - 0.0
20/05:30pm 10.4 7.8 4.1 65 2.9 E 7 9 4 5 - - 0.0

Other Formats:

Comma delimited format used in spreadsheet applications
http://www.bom.gov.au/fwo/IDV60801/IDV60801.94930.axf

JavaScript Object Notation format (JSON) in row-major order
http://www.bom.gov.au/fwo/IDV60801/IDV60801.94930.json